createdAt,value
2019-02-14T00:01:56.861Z,11.93
2019-02-14T00:04:38.914Z,14.57
2019-02-14T00:07:28.641Z,12.27
2019-02-14T00:10:10.559Z,12.23
2019-02-14T00:13:00.321Z,11.50
2019-02-14T00:15:50.005Z,13.30
2019-02-14T00:18:32.246Z,13.30
2019-02-14T00:21:14.359Z,10.77
2019-02-14T00:24:04.148Z,11.73
2019-02-14T00:29:57.475Z,9.20
2019-02-14T00:32:39.695Z,10.17
2019-02-14T00:35:29.775Z,9.87
2019-02-14T00:38:19.547Z,10.47
2019-02-14T00:41:09.292Z,9.67
2019-02-14T00:44:18.166Z,9.10
2019-02-14T00:47:00.356Z,11.13
2019-02-14T00:49:50.104Z,10.93
2019-02-14T00:52:39.816Z,10.67
2019-02-14T00:55:22.498Z,9.73
2019-02-14T01:01:21.278Z,10.13
2019-02-14T01:04:04.016Z,10.43
2019-02-14T01:06:53.812Z,10.67
2019-02-14T01:09:56.286Z,10.10
2019-02-14T01:12:39.860Z,11.37
2019-02-14T01:18:26.586Z,11.60
2019-02-14T01:21:16.270Z,14.30
2019-02-14T01:23:58.182Z,12.77
2019-02-14T01:26:47.884Z,10.93
2019-02-14T01:29:29.819Z,9.37
2019-02-14T01:32:19.690Z,9.30
2019-02-14T01:35:01.648Z,8.93
2019-02-14T01:37:51.384Z,11.53
2019-02-14T01:40:33.778Z,10.23
2019-02-14T01:46:24.964Z,11.13
2019-02-14T01:49:14.662Z,10.80
2019-02-14T01:51:56.840Z,9.67
2019-02-14T01:54:46.569Z,9.07
2019-02-14T01:57:28.966Z,11.17
2019-02-14T02:03:22.066Z,9.80
2019-02-14T02:05:52.786Z,8.97
2019-02-14T02:08:42.508Z,11.00
2019-02-14T02:11:25.342Z,9.77
2019-02-14T02:14:15.118Z,10.27
2019-02-14T02:17:04.889Z,8.67
2019-02-14T02:19:54.676Z,12.07
2019-02-14T02:23:03.593Z,10.63
2019-02-14T02:25:53.305Z,12.37
2019-02-14T02:28:43.038Z,11.63
2019-02-14T02:31:32.774Z,11.90
2019-02-14T02:34:15.732Z,12.63
2019-02-14T02:40:08.937Z,12.17
2019-02-14T02:42:51.017Z,10.43
2019-02-14T02:45:40.921Z,11.33
2019-02-14T02:48:30.762Z,11.17
2019-02-14T02:51:20.529Z,10.67
2019-02-14T02:57:13.408Z,13.07
2019-02-14T02:59:55.591Z,10.83
2019-02-14T03:02:45.333Z,11.97
2019-02-14T03:05:27.364Z,10.80
2019-02-14T03:08:10.085Z,12.37
2019-02-14T03:10:59.829Z,13.03
2019-02-14T03:13:49.617Z,14.47
2019-02-14T03:16:39.418Z,10.70
2019-02-14T03:19:29.271Z,14.00
2019-02-14T03:22:18.995Z,15.40
2019-02-14T03:25:01.579Z,13.13
2019-02-14T03:27:51.402Z,13.70
2019-02-14T03:30:41.198Z,12.33
2019-02-14T03:33:31.054Z,11.27
2019-02-14T03:36:21.023Z,15.53
2019-02-14T03:39:10.899Z,14.07
2019-02-14T03:42:00.701Z,9.93
2019-02-14T03:44:50.477Z,12.30
2019-02-14T03:47:40.241Z,12.63
2019-02-14T03:50:29.959Z,12.07
2019-02-14T03:53:12.133Z,11.97
2019-02-14T03:56:01.877Z,11.33
2019-02-14T03:58:44.089Z,10.83
2019-02-14T04:01:33.838Z,12.33
2019-02-14T04:04:23.558Z,10.77
2019-02-14T04:07:13.488Z,13.57
2019-02-14T04:09:55.862Z,15.00
2019-02-14T04:13:04.655Z,12.17
2019-02-14T04:15:46.677Z,11.67
2019-02-14T04:18:36.532Z,11.73
2019-02-14T04:21:18.765Z,12.70
2019-02-14T04:24:08.481Z,12.13
2019-02-14T04:26:52.588Z,13.53
2019-02-14T04:29:42.309Z,13.57
2019-02-14T04:32:24.601Z,14.77
2019-02-14T04:35:14.642Z,12.07
2019-02-14T04:37:57.531Z,13.53
2019-02-14T04:40:47.265Z,11.20
2019-02-14T04:43:29.820Z,12.60
2019-02-14T04:46:19.531Z,13.73
2019-02-14T04:49:01.697Z,12.10
2019-02-14T04:51:51.408Z,10.30
2019-02-14T04:54:33.407Z,11.80
2019-02-14T04:57:15.404Z,12.83
2019-02-14T05:00:06.222Z,12.07
2019-02-14T05:02:55.990Z,14.27
2019-02-14T05:05:45.763Z,14.53
2019-02-14T05:08:35.570Z,12.13
2019-02-14T05:11:25.416Z,13.10
2019-02-14T05:14:15.301Z,13.70
2019-02-14T05:17:05.073Z,14.93
2019-02-14T05:19:54.808Z,12.97
2019-02-14T05:23:03.665Z,13.67
2019-02-14T05:25:53.546Z,13.07
2019-02-14T05:28:43.314Z,13.07
2019-02-14T05:31:33.106Z,12.07
2019-02-14T05:34:22.942Z,14.97
2019-02-14T05:37:31.737Z,11.20
2019-02-14T05:40:14.060Z,12.23
2019-02-14T05:43:03.812Z,12.20
2019-02-14T05:45:45.758Z,13.70
2019-02-14T05:48:35.503Z,16.00
2019-02-14T05:51:17.488Z,18.20
2019-02-14T05:54:07.479Z,14.77
2019-02-14T05:56:50.076Z,12.90
2019-02-14T05:59:39.795Z,20.63
2019-02-14T06:02:29.706Z,15.17
2019-02-14T06:05:11.959Z,14.80
2019-02-14T06:08:01.706Z,13.33
2019-02-14T06:10:51.500Z,12.83
2019-02-14T06:13:41.280Z,15.47
2019-02-14T06:16:23.884Z,13.80
2019-02-14T06:19:13.669Z,15.50
2019-02-14T06:22:03.524Z,14.43
2019-02-14T06:24:53.354Z,15.47
2019-02-14T06:27:43.123Z,13.67
2019-02-14T06:33:29.652Z,16.73
2019-02-14T06:39:20.980Z,15.77
2019-02-14T06:42:10.696Z,14.53
2019-02-14T06:44:53.066Z,15.67
2019-02-14T06:47:42.816Z,13.93
2019-02-14T06:50:25.439Z,14.43
2019-02-14T06:53:15.176Z,17.83
2019-02-14T06:56:04.945Z,12.90
2019-02-14T06:58:47.788Z,13.07
2019-02-14T07:04:33.608Z,12.33
2019-02-14T07:07:23.384Z,15.27
2019-02-14T07:10:06.486Z,16.20
2019-02-14T07:12:56.215Z,14.23
2019-02-14T07:15:38.779Z,17.77
2019-02-14T07:18:28.547Z,12.97
2019-02-14T07:21:10.611Z,12.83
2019-02-14T07:24:00.373Z,15.03
2019-02-14T07:26:42.770Z,14.37
2019-02-14T07:29:32.697Z,15.40
2019-02-14T07:32:15.253Z,21.37
2019-02-14T07:35:05.151Z,18.60
2019-02-14T07:37:48.089Z,20.57
2019-02-14T07:40:37.854Z,19.13
2019-02-14T07:43:20.084Z,16.90
2019-02-14T07:46:09.850Z,20.47
2019-02-14T07:48:52.224Z,16.13
2019-02-14T07:51:41.991Z,15.83
2019-02-14T07:54:24.121Z,17.87
2019-02-14T07:57:13.825Z,18.13
2019-02-14T07:59:56.365Z,20.77
2019-02-14T08:02:46.083Z,19.23
2019-02-14T08:05:35.837Z,19.27
2019-02-14T08:08:18.037Z,19.90
2019-02-14T08:11:20.733Z,22.30
2019-02-14T08:14:02.884Z,20.03
2019-02-14T08:16:52.616Z,20.83
2019-02-14T08:19:35.159Z,19.37
2019-02-14T08:22:24.925Z,25.00
2019-02-14T08:25:08.189Z,24.90
2019-02-14T08:27:57.927Z,19.83
2019-02-14T08:30:41.791Z,20.60
2019-02-14T08:33:31.517Z,17.53
2019-02-14T08:36:13.587Z,18.87
2019-02-14T08:39:03.565Z,20.23
2019-02-14T08:41:45.743Z,19.70
2019-02-14T08:44:35.487Z,16.43
2019-02-14T08:47:17.589Z,23.47
2019-02-14T08:50:07.739Z,20.97
2019-02-14T08:52:49.977Z,21.83
2019-02-14T08:55:39.733Z,19.70
2019-02-14T08:58:22.335Z,32.20
2019-02-14T09:01:12.049Z,19.17
2019-02-14T09:03:54.542Z,20.27
2019-02-14T09:06:44.291Z,18.10
2019-02-14T09:09:26.500Z,18.07
2019-02-14T09:12:10.059Z,19.93
2019-02-14T09:14:52.047Z,18.63
2019-02-14T09:17:41.837Z,18.47
2019-02-14T09:20:31.597Z,18.47
2019-02-14T09:23:21.380Z,20.43
2019-02-14T09:26:11.212Z,17.07
2019-02-14T09:31:54.857Z,19.90
2019-02-14T09:34:44.771Z,20.93
2019-02-14T09:37:34.551Z,19.30
2019-02-14T09:40:24.346Z,21.43
2019-02-14T09:43:14.054Z,19.47
2019-02-14T09:46:04.201Z,22.17
2019-02-14T09:48:53.960Z,20.07
2019-02-14T09:51:36.376Z,21.50
2019-02-14T09:54:26.386Z,20.47
2019-02-14T09:57:08.408Z,22.17
2019-02-14T09:59:58.135Z,23.60
2019-02-14T10:02:40.316Z,24.87
2019-02-14T10:05:30.072Z,29.57
2019-02-14T10:08:13.195Z,25.57
2019-02-14T10:11:03.052Z,26.60
2019-02-14T10:13:45.294Z,26.60
2019-02-14T10:16:35.091Z,34.60
2019-02-14T10:19:24.906Z,31.83
2019-02-14T10:22:14.750Z,23.03
2019-02-14T10:25:04.560Z,22.63
2019-02-14T10:27:54.275Z,23.27
2019-02-14T10:30:25.004Z,23.93
2019-02-14T10:33:14.760Z,25.40
2019-02-14T10:36:04.648Z,23.63
2019-02-14T10:38:46.774Z,24.27
2019-02-14T10:41:36.494Z,22.83
2019-02-14T10:44:22.784Z,25.63
2019-02-14T10:47:12.540Z,21.97
2019-02-14T10:49:56.718Z,23.77
2019-02-14T10:52:46.750Z,20.67
2019-02-14T10:55:29.436Z,23.67
2019-02-14T10:58:19.526Z,22.80
2019-02-14T11:01:02.046Z,22.83
2019-02-14T11:03:51.800Z,22.07
2019-02-14T11:06:33.973Z,26.27
2019-02-14T11:09:23.693Z,24.50
2019-02-14T11:12:06.215Z,21.93
2019-02-14T11:14:55.971Z,21.23
2019-02-14T11:17:38.757Z,22.07
2019-02-14T11:20:28.558Z,22.70
2019-02-14T11:23:11.593Z,21.60
2019-02-14T11:26:01.352Z,22.97
2019-02-14T11:28:51.170Z,20.97
2019-02-14T11:31:40.988Z,20.63
2019-02-14T11:34:30.820Z,22.90
2019-02-14T11:37:20.623Z,20.10
2019-02-14T11:40:11.319Z,29.70
2019-02-14T11:42:53.405Z,18.33
2019-02-14T11:45:43.228Z,19.53
2019-02-14T11:48:33.093Z,20.20
2019-02-14T11:51:22.915Z,21.83
2019-02-14T11:54:12.749Z,23.03
2019-02-14T11:57:02.536Z,23.43
2019-02-14T11:59:52.301Z,20.20
2019-02-14T12:02:42.045Z,21.07
2019-02-14T12:05:31.857Z,23.20
2019-02-14T12:08:21.673Z,19.77
2019-02-14T12:11:11.414Z,22.07
2019-02-14T12:14:01.144Z,17.60
2019-02-14T12:16:50.861Z,18.40
2019-02-14T12:19:32.928Z,20.23
2019-02-14T12:22:22.669Z,25.57
2019-02-14T12:25:06.135Z,17.03
2019-02-14T12:27:55.851Z,20.60
2019-02-14T12:30:38.143Z,19.70
2019-02-14T12:33:27.925Z,18.13
2019-02-14T12:36:09.890Z,20.17
2019-02-14T12:39:08.320Z,18.33
2019-02-14T12:41:43.805Z,16.80
2019-02-14T12:44:33.604Z,18.87
2019-02-14T12:47:23.473Z,21.07
2019-02-14T12:50:13.221Z,21.10
2019-02-14T12:53:03.057Z,16.83
2019-02-14T12:55:47.666Z,20.77
2019-02-14T12:58:37.318Z,19.80
2019-02-14T13:01:21.761Z,19.70
2019-02-14T13:04:11.277Z,21.23
2019-02-14T13:06:54.117Z,17.23
2019-02-14T13:09:44.171Z,19.62
2019-02-14T13:12:33.980Z,17.73
2019-02-14T13:15:24.164Z,16.67
2019-02-14T13:18:13.916Z,19.83
2019-02-14T13:21:03.766Z,18.17
2019-02-14T13:23:53.645Z,23.27
2019-02-14T13:27:02.523Z,19.97
2019-02-14T13:29:52.235Z,18.73
2019-02-14T13:32:42.302Z,19.07
2019-02-14T13:35:32.150Z,16.80
2019-02-14T13:38:14.978Z,22.97
2019-02-14T13:41:04.727Z,18.10
2019-02-14T13:43:47.322Z,19.57
2019-02-14T13:46:37.043Z,18.33
2019-02-14T13:49:19.604Z,20.70
2019-02-14T13:52:09.409Z,16.93
2019-02-14T13:54:52.226Z,21.07
2019-02-14T14:03:37.621Z,20.70
2019-02-14T14:06:25.400Z,19.17
2019-02-14T14:09:12.391Z,16.70
2019-02-14T14:12:02.612Z,20.23
2019-02-14T14:14:52.812Z,16.00
2019-02-14T14:17:42.619Z,14.93
2019-02-14T14:20:32.361Z,15.53
2019-02-14T14:23:14.536Z,17.13
2019-02-14T14:26:04.350Z,17.00
2019-02-14T14:28:54.210Z,16.43
2019-02-14T14:31:43.986Z,15.30
2019-02-14T14:34:33.716Z,16.50
2019-02-14T14:37:16.557Z,17.00
2019-02-14T14:40:07.356Z,16.27
2019-02-14T14:43:15.986Z,16.07
2019-02-14T14:49:06.580Z,19.30
2019-02-14T14:51:56.327Z,17.93
2019-02-14T14:54:38.581Z,15.10
2019-02-14T14:57:28.309Z,14.40
2019-02-14T15:00:14.430Z,16.13
2019-02-14T15:03:04.224Z,15.80
2019-02-14T15:05:46.992Z,15.50
2019-02-14T15:08:36.781Z,17.87
2019-02-14T15:11:26.670Z,18.33
2019-02-14T15:14:16.619Z,15.70
2019-02-14T15:16:58.659Z,16.17
2019-02-14T15:19:41.337Z,15.23
2019-02-14T15:22:31.101Z,18.17
2019-02-14T15:25:17.977Z,16.90
2019-02-14T15:28:16.879Z,16.33
2019-02-14T15:31:06.825Z,16.07
2019-02-14T15:33:56.783Z,17.23
2019-02-14T15:36:47.197Z,18.03
2019-02-14T15:39:30.918Z,17.30
2019-02-14T15:42:33.441Z,17.40
2019-02-14T15:45:17.053Z,15.43
2019-02-14T15:48:06.805Z,18.83
2019-02-14T15:50:49.089Z,17.83
2019-02-14T15:53:38.797Z,17.93
2019-02-14T15:56:21.037Z,14.73
2019-02-14T15:59:29.891Z,16.97
2019-02-14T16:02:13.690Z,17.53
2019-02-14T16:08:09.435Z,15.87
2019-02-14T16:10:55.968Z,16.83
2019-02-14T16:13:38.900Z,19.60
2019-02-14T16:16:28.680Z,18.60
2019-02-14T16:19:18.513Z,19.57
2019-02-14T16:22:08.237Z,17.63
2019-02-14T16:24:57.951Z,17.50
2019-02-14T16:27:48.206Z,19.10
2019-02-14T16:30:33.324Z,17.17
2019-02-14T16:33:23.624Z,18.03
2019-02-14T16:36:08.589Z,17.63
2019-02-14T16:38:59.311Z,20.83
2019-02-14T16:41:42.441Z,22.13
2019-02-14T16:44:32.563Z,16.87
2019-02-14T16:47:14.861Z,16.10
2019-02-14T16:50:04.939Z,20.03
2019-02-14T16:52:47.596Z,18.13
2019-02-14T16:55:37.359Z,18.33
2019-02-14T16:58:20.669Z,23.53
2019-02-14T17:01:10.427Z,17.03
2019-02-14T17:03:52.745Z,21.50
2019-02-14T17:06:42.593Z,21.60
2019-02-14T17:09:44.137Z,20.77
2019-02-14T17:12:22.301Z,23.17
2019-02-14T17:15:05.034Z,21.70
2019-02-14T17:17:55.083Z,22.03
2019-02-14T17:20:42.068Z,18.93
2019-02-14T17:23:31.804Z,19.20
2019-02-14T17:26:13.894Z,22.73
2019-02-14T17:29:03.824Z,22.63
2019-02-14T17:31:45.998Z,19.90
2019-02-14T17:34:35.770Z,24.67
2019-02-14T17:37:17.756Z,21.20
2019-02-14T17:40:07.954Z,21.40
2019-02-14T17:42:52.485Z,21.97
2019-02-14T17:45:41.926Z,22.70
2019-02-14T17:48:24.428Z,20.00
2019-02-14T17:51:14.169Z,18.33
2019-02-14T17:53:56.430Z,22.93
2019-02-14T17:56:46.172Z,23.13
2019-02-14T17:59:28.455Z,23.67
2019-02-14T18:05:21.274Z,24.90
2019-02-14T18:08:11.032Z,21.33
2019-02-14T18:10:55.000Z,21.53
2019-02-14T18:16:41.036Z,20.70
2019-02-14T18:19:23.544Z,21.97
2019-02-14T18:22:13.395Z,20.87
2019-02-14T18:25:03.609Z,20.80
2019-02-14T18:27:53.406Z,20.63
2019-02-14T18:30:43.217Z,20.10
2019-02-14T18:33:33.053Z,18.57
2019-02-14T18:36:22.765Z,21.57
2019-02-14T18:39:09.650Z,19.10
2019-02-14T18:41:52.119Z,20.83
2019-02-14T18:44:41.936Z,21.93
2019-02-14T18:47:39.473Z,21.60
2019-02-14T18:50:15.957Z,25.80
2019-02-14T18:53:05.747Z,25.10
2019-02-14T18:55:48.449Z,29.20
2019-02-14T18:58:51.213Z,27.00
2019-02-14T19:01:33.916Z,25.53
2019-02-14T19:04:23.613Z,25.00
2019-02-14T19:07:05.701Z,34.07
2019-02-14T19:09:55.416Z,27.63
2019-02-14T19:12:39.331Z,29.73
2019-02-14T19:15:29.467Z,26.00
2019-02-14T19:18:11.511Z,30.70
2019-02-14T19:21:01.276Z,27.87
2019-02-14T19:23:43.298Z,27.17
2019-02-14T19:26:33.024Z,26.70
2019-02-14T19:29:16.939Z,27.87
2019-02-14T19:32:06.719Z,28.43
2019-02-14T19:34:49.384Z,32.93
2019-02-14T19:37:39.210Z,23.97
2019-02-14T19:40:21.247Z,25.00
2019-02-14T19:43:10.999Z,24.90
2019-02-14T19:45:53.071Z,25.03
2019-02-14T19:48:42.793Z,25.30
2019-02-14T19:51:25.242Z,27.10
2019-02-14T19:54:14.969Z,29.07
2019-02-14T19:56:57.012Z,23.57
2019-02-14T19:59:46.729Z,25.67
2019-02-14T20:02:29.003Z,25.77
2019-02-14T20:05:18.865Z,28.70
2019-02-14T20:08:01.140Z,26.63
2019-02-14T20:11:09.673Z,24.57
2019-02-14T20:13:51.789Z,25.30
2019-02-14T20:16:41.602Z,26.00
2019-02-14T20:19:31.517Z,24.43
2019-02-14T20:25:25.073Z,28.50
2019-02-14T20:28:07.743Z,28.87
2019-02-14T20:30:57.567Z,22.40
2019-02-14T20:33:47.671Z,23.30
2019-02-14T20:36:30.321Z,30.97
2019-02-14T20:39:20.069Z,23.10
2019-02-14T20:42:02.618Z,25.50
2019-02-14T20:44:52.427Z,25.50
2019-02-14T20:47:42.317Z,26.57
2019-02-14T20:50:32.120Z,25.57
2019-02-14T20:53:21.945Z,26.20
2019-02-14T20:56:11.750Z,28.37
2019-02-14T20:59:01.610Z,26.77
2019-02-14T21:01:51.591Z,23.77
2019-02-14T21:04:41.413Z,19.50
2019-02-14T21:07:31.154Z,22.43
2019-02-14T21:10:14.247Z,23.33
2019-02-14T21:13:04.273Z,24.37
2019-02-14T21:15:54.206Z,25.10
2019-02-14T21:18:44.038Z,22.73
2019-02-14T21:21:33.878Z,20.97
2019-02-14T21:24:23.621Z,25.13
2019-02-14T21:27:06.295Z,27.00
2019-02-14T21:29:49.179Z,24.57
2019-02-14T21:32:38.965Z,24.73
2019-02-14T21:35:28.812Z,24.57
2019-02-14T21:38:18.598Z,23.37
2019-02-14T21:41:08.444Z,24.37
2019-02-14T21:43:58.274Z,22.10
2019-02-14T21:46:48.198Z,22.20
2019-02-14T21:49:38.071Z,22.10
2019-02-14T21:52:27.900Z,21.77
2019-02-14T21:55:17.774Z,20.93
2019-02-14T21:58:07.616Z,22.57
2019-02-14T22:00:57.424Z,23.80
2019-02-14T22:03:47.512Z,20.17
2019-02-14T22:06:37.300Z,22.93
2019-02-14T22:09:27.082Z,23.97
2019-02-14T22:12:16.930Z,20.27
2019-02-14T22:18:12.491Z,18.83
2019-02-14T22:20:54.608Z,19.60
2019-02-14T22:23:44.405Z,21.20
2019-02-14T22:26:34.438Z,21.03
2019-02-14T22:34:56.376Z,22.67
2019-02-14T22:37:46.090Z,21.63
2019-02-14T22:40:28.882Z,21.13
2019-02-14T22:43:18.633Z,22.43
2019-02-14T22:46:01.276Z,25.87
2019-02-14T22:48:51.002Z,24.90
2019-02-14T22:51:33.061Z,24.53
2019-02-14T22:54:22.859Z,28.83
2019-02-14T22:57:05.512Z,24.30
2019-02-14T23:02:56.616Z,26.13
2019-02-14T23:05:46.497Z,23.00
2019-02-14T23:08:29.136Z,29.77
2019-02-14T23:11:18.856Z,20.20
2019-02-14T23:14:02.515Z,23.07
2019-02-14T23:16:52.386Z,22.03
2019-02-14T23:19:34.609Z,24.40
2019-02-14T23:22:24.348Z,20.27
2019-02-14T23:25:06.599Z,21.37
2019-02-14T23:27:56.560Z,19.20
2019-02-14T23:30:38.671Z,19.90
2019-02-14T23:33:29.007Z,20.30
2019-02-14T23:36:13.360Z,26.50
2019-02-14T23:42:06.409Z,26.40
2019-02-14T23:44:56.123Z,28.23
2019-02-14T23:47:38.837Z,27.67
2019-02-14T23:50:28.567Z,26.97
2019-02-14T23:53:11.069Z,29.57
2019-02-14T23:56:00.829Z,25.87
2019-02-14T23:58:50.551Z,28.90
